La Aurora Airport
MGGT : now visible

Airfield :











YOU CAN JOIN US ON...

 
LOGIN :

Register | Disclaimer

   EN    FR    IT 

 









Legend :    VFR   Marginal VFR   IFR   Intensive IFR   Very Intensive IFR
Visi :
Ceiling :
>= 8 km
>= 3000ft
5 to 8 km
1000 to 3000 ft
1500m to 5 km
500 to 1000 ft
800 to 1500m
200 to 500 ft
< 800m
< 200 ft
Symbols :   Thunderstorms  Fog  Heavy snow  Heavy precipitations  Wind > 20 kt






- Airport Elevation : 4952 ft
- IATA code : GUA


MGGT - La Aurora

CURRENT METAR :
  • 031700Z 20008KT 9999 FEW020 27/15 Q1024 A3024

EXPIRED METARs :
  • 031600Z 18006KT 9999 FEW020 25/13 Q1021 A3015
  • 031500Z 00000KT CAV0K 23/13 Q1021 A1015

TAF TAF MGGT
Valid from the 03 at 12:00 until the 04 at 12:00 UTC


031100Z 0312/0412 VRB03KT 9999 FEW010 TX28/0320Z TN16/0312Z
BECMG 0314/0316 FEW018
BECMG 0318/0320 18010KT SCT020
TEMPO 0318/0324 8000 TSRA FEW025CB
BECMG 0401/0403 VRB03KT SCT016
TEMPO 0407/0412 5000 BR BKN012



MET'MAP, your aeronautical weather chart ! - Copyright ORBIFLY December 2007 - Disclaimer

ORBIFLY MET'MAP TEAM :

Programming & Development : Alexandra Zaïnal
Concept & original design : Baudouin d'Aumeries
Assistance for programming : Marc-Olivier Méhu
Technical & hardware support : Manuel Goepfert

Contact : metmap@orbifly.com




SOURCES & CREDITS :

   NOAA       Earth
Advisory